Time;durP1;ratioP1;P1;durP2;ratioP2;P2;SDS_P1;SDS_P2;PMS_P1;PMS_P2;Temp;Humidity;BMP_temperature;BMP_pressure;BME280_temperature;BME280_humidity;BME280_pressure;Samples;Min_cycle;Max_cycle;Signal;HPM_P1;HPM_P2
2021/09/29 00:00:45;;;;;;;70.65;49.30;;;21.50;80.70;;;;;;4939500;28;20457;-63
2021/09/29 00:03:11;;;;;;;72.53;48.80;;;21.50;80.50;;;;;;4955591;28;20035;-63
2021/09/29 00:05:39;;;;;;;71.07;49.15;;;21.60;81.40;;;;;;4937876;28;20606;-63
2021/09/29 00:08:09;;;;;;;64.90;47.40;;;21.60;81.60;;;;;;4954092;28;20031;-63
2021/09/29 00:10:36;;;;;;;72.97;50.17;;;21.50;82.60;;;;;;4955319;28;20430;-63
2021/09/29 00:13:02;;;;;;;65.72;47.60;;;21.50;83.00;;;;;;4955704;29;20027;-63
2021/09/29 00:15:28;;;;;;;72.38;50.67;;;21.60;83.20;;;;;;4954935;28;20511;-63
2021/09/29 00:17:54;;;;;;;71.03;49.50;;;21.50;84.10;;;;;;4955027;28;20035;-63
2021/09/29 00:20:19;;;;;;;68.80;47.97;;;21.60;85.70;;;;;;4955486;28;20127;-63
2021/09/29 00:22:45;;;;;;;70.82;48.25;;;21.60;87.30;;;;;;4954425;28;20110;-63
2021/09/29 00:25:13;;;;;;;70.45;48.15;;;21.60;90.00;;;;;;4955821;29;20082;-63
2021/09/29 00:27:39;;;;;;;70.85;50.78;;;21.70;90.20;;;;;;4952346;28;20033;-63
2021/09/29 00:30:07;;;;;;;70.70;49.40;;;21.70;90.70;;;;;;4955203;29;20070;-63
2021/09/29 00:32:35;;;;;;;68.30;50.65;;;21.70;90.90;;;;;;4955549;28;20041;-63
2021/09/29 00:35:01;;;;;;;71.85;51.63;;;21.70;90.60;;;;;;4955643;29;20082;-63
2021/09/29 00:37:28;;;;;;;69.28;49.47;;;21.80;90.70;;;;;;4954836;28;20496;-63
2021/09/29 00:39:54;;;;;;;73.43;48.55;;;21.80;91.20;;;;;;4938038;29;20031;-63
2021/09/29 00:42:20;;;;;;;68.10;48.53;;;21.80;91.30;;;;;;4953290;28;20054;-63
2021/09/29 00:44:45;;;;;;;76.35;54.03;;;21.90;91.00;;;;;;4944160;29;20058;-63
2021/09/29 00:47:12;;;;;;;68.32;49.10;;;21.80;90.90;;;;;;4954812;28;20054;-63
2021/09/29 00:49:38;;;;;;;72.38;50.65;;;21.80;90.90;;;;;;4967370;28;20065;-63
2021/09/29 00:52:04;;;;;;;69.90;51.92;;;21.90;90.60;;;;;;4972657;28;20034;-63
2021/09/29 00:54:31;;;;;;;70.25;49.30;;;21.90;91.20;;;;;;4974202;28;20031;-63
2021/09/29 00:56:57;;;;;;;68.80;48.55;;;21.90;90.60;;;;;;4973598;28;20030;-63
2021/09/29 00:59:23;;;;;;;73.57;49.38;;;21.90;90.40;;;;;;4973769;28;20057;-63
2021/09/29 01:01:50;;;;;;;67.10;47.80;;;21.80;91.30;;;;;;4971983;28;20469;-63
2021/09/29 01:04:17;;;;;;;67.47;47.58;;;21.90;91.00;;;;;;4953780;29;20046;-63
2021/09/29 01:06:49;;;;;;;67.20;46.75;;;21.80;91.00;;;;;;4961222;28;20033;-64
2021/09/29 01:09:23;;;;;;;66.32;46.35;;;21.90;91.70;;;;;;4974141;28;20114;-63
2021/09/29 01:11:59;;;;;;;62.17;43.50;;;21.80;92.10;;;;;;4973382;28;20309;-63
2021/09/29 01:14:54;;;;;;;68.25;46.00;;;21.80;95.80;;;;;;4974189;28;20023;-63
2021/09/29 01:17:20;;;;;;;;;;;21.80;94.50;;;;;;4973746;28;20042;-63
2021/09/29 01:20:00;;;;;;;60.58;42.30;;;21.80;95.10;;;;;;4973916;28;20372;-63
2021/09/29 01:22:41;;;;;;;62.58;41.78;;;21.80;93.90;;;;;;4954965;28;20028;-64
2021/09/29 01:25:29;;;;;;;64.68;43.88;;;21.80;93.10;;;;;;4973352;28;20456;-63
2021/09/29 01:27:57;;;;;;;65.20;43.85;;;21.80;93.30;;;;;;4967644;28;20461;-63
2021/09/29 01:30:23;;;;;;;56.42;41.45;;;21.80;93.20;;;;;;4954909;29;20098;-63
2021/09/29 01:32:50;;;;;;;59.75;41.88;;;21.70;92.90;;;;;;4975048;28;20038;-64
2021/09/29 01:35:16;;;;;;;61.95;42.97;;;21.70;93.20;;;;;;4977815;28;20029;-64
2021/09/29 01:37:42;;;;;;;57.92;42.40;;;21.70;93.10;;;;;;4977249;28;20058;-64
2021/09/29 01:40:09;;;;;;;59.78;41.50;;;21.80;93.10;;;;;;4972356;28;20024;-63
2021/09/29 01:42:35;;;;;;;58.45;41.45;;;21.70;93.10;;;;;;4971280;28;20090;-63
2021/09/29 01:45:01;;;;;;;52.72;37.65;;;21.70;93.00;;;;;;4977570;28;20469;-64
2021/09/29 01:47:26;;;;;;;51.47;36.58;;;21.70;93.00;;;;;;4977049;28;20055;-63
2021/09/29 01:50:00;;;;;;;49.80;36.33;;;21.80;93.00;;;;;;4962340;28;20063;-63
2021/09/29 01:52:26;;;;;;;49.63;36.03;;;21.70;93.10;;;;;;4954953;28;20031;-64
2021/09/29 01:54:52;;;;;;;47.17;34.03;;;21.80;93.10;;;;;;4957637;28;20067;-63
2021/09/29 01:57:18;;;;;;;50.75;35.47;;;21.80;93.00;;;;;;4956199;28;20042;-63
2021/09/29 01:59:44;;;;;;;49.35;34.25;;;21.80;93.10;;;;;;4958279;29;20027;-63
2021/09/29 02:02:12;;;;;;;46.17;33.45;;;21.80;93.10;;;;;;4957354;28;20042;-64
2021/09/29 02:04:46;;;;;;;44.60;32.90;;;21.80;93.20;;;;;;4957807;29;20046;-63
2021/09/29 02:07:12;;;;;;;;;;;21.70;93.00;;;;;;4958279;28;20023;-63
2021/09/29 02:09:37;;;;;;;43.40;30.35;;;21.80;93.30;;;;;;4957766;29;20005;-63
2021/09/29 02:12:03;;;;;;;44.92;31.33;;;21.70;92.90;;;;;;4956715;28;20031;-63
2021/09/29 02:14:29;;;;;;;38.22;28.92;;;21.80;92.60;;;;;;4957988;29;20059;-63
2021/09/29 02:16:55;;;;;;;36.85;26.92;;;21.80;92.70;;;;;;4957243;28;20106;-63
2021/09/29 02:19:23;;;;;;;38.50;28.60;;;21.80;92.50;;;;;;4957939;29;20457;-63
2021/09/29 02:21:49;;;;;;;36.65;28.00;;;21.70;92.70;;;;;;4956947;28;20046;-64
2021/09/29 02:24:15;;;;;;;32.25;24.55;;;21.70;92.70;;;;;;4956997;28;20035;-63
2021/09/29 02:26:41;;;;;;;30.75;23.30;;;21.70;92.70;;;;;;4943911;28;20038;-63
2021/09/29 02:29:09;;;;;;;30.95;23.70;;;21.80;92.50;;;;;;4937136;29;20442;-63
2021/09/29 02:31:35;;;;;;;25.65;19.67;;;21.70;92.30;;;;;;4941276;28;20493;-64
2021/09/29 02:34:02;;;;;;;23.15;18.90;;;21.70;92.00;;;;;;4957809;29;20039;-63
2021/09/29 02:36:28;;;;;;;22.90;17.33;;;21.70;91.60;;;;;;4957105;28;20019;-63
2021/09/29 02:38:54;;;;;;;19.33;16.13;;;21.70;91.90;;;;;;4957329;29;20035;-63
2021/09/29 02:41:22;;;;;;;20.73;15.43;;;21.70;91.90;;;;;;4956839;28;20425;-63
2021/09/29 02:43:48;;;;;;;20.08;16.02;;;21.60;91.70;;;;;;4953929;28;20035;-63
2021/09/29 02:46:14;;;;;;;22.95;16.20;;;21.60;91.70;;;;;;4955830;29;20458;-63
2021/09/29 02:48:39;;;;;;;18.13;14.68;;;21.50;91.00;;;;;;4961862;28;20457;-63
2021/09/29 02:51:05;;;;;;;20.55;15.68;;;21.50;91.50;;;;;;4976321;28;20511;-63
2021/09/29 02:53:31;;;;;;;16.60;14.38;;;21.40;91.30;;;;;;4975956;28;20472;-64
2021/09/29 02:55:58;;;;;;;15.57;13.52;;;21.50;91.40;;;;;;4976272;28;20031;-63
2021/09/29 02:58:24;;;;;;;17.85;13.90;;;21.50;91.30;;;;;;4975272;28;20026;-63
2021/09/29 03:00:51;;;;;;;14.05;12.50;;;21.40;90.70;;;;;;4976176;28;20388;-64
2021/09/29 03:03:18;;;;;;;14.48;12.90;;;21.40;91.10;;;;;;4973166;28;20054;-64
2021/09/29 03:05:44;;;;;;;14.73;12.88;;;21.40;91.10;;;;;;4974788;28;20097;-64
2021/09/29 03:08:10;;;;;;;14.43;12.88;;;;;;;;;;4974111;28;20062;-64
2021/09/29 03:10:38;;;;;;;14.55;12.75;;;21.20;70.50;;;;;;4958071;28;20513;-64
2021/09/29 03:13:04;;;;;;;15.32;12.55;;;;;;;;;;4963614;28;20053;-64
2021/09/29 03:15:29;;;;;;;17.02;12.52;;;21.10;85.20;;;;;;4975867;28;20145;-64
2021/09/29 03:17:55;;;;;;;13.70;11.32;;;21.20;71.60;;;;;;4957716;28;20043;-64
2021/09/29 03:20:21;;;;;;;15.55;12.93;;;21.20;73.80;;;;;;4975302;28;20019;-64
2021/09/29 03:22:47;;;;;;;13.63;11.73;;;21.20;75.40;;;;;;4978164;28;20031;-64
2021/09/29 03:25:14;;;;;;;13.38;11.13;;;21.20;77.10;;;;;;4958469;28;20030;-64
2021/09/29 03:27:39;;;;;;;14.80;11.40;;;21.30;78.70;;;;;;4974747;28;20057;-64
2021/09/29 03:30:06;;;;;;;13.63;11.70;;;21.20;80.60;;;;;;4975274;28;20089;-64
2021/09/29 03:32:31;;;;;;;12.60;11.13;;;21.40;81.60;;;;;;4976029;28;20030;-64
2021/09/29 03:34:57;;;;;;;13.32;10.27;;;21.40;80.80;;;;;;4975251;28;20393;-64
2021/09/29 03:37:22;;;;;;;12.65;10.43;;;21.40;80.20;;;;;;4975043;28;20481;-64
2021/09/29 03:39:48;;;;;;;12.02;10.80;;;21.40;79.80;;;;;;4975448;28;20066;-64
2021/09/29 03:42:14;;;;;;;12.65;10.23;;;21.40;80.10;;;;;;4973403;28;20114;-64
2021/09/29 03:44:39;;;;;;;14.90;10.65;;;21.30;79.60;;;;;;4964466;28;20042;-64
2021/09/29 03:47:05;;;;;;;12.65;10.25;;;21.40;79.10;;;;;;4974729;28;20041;-64
2021/09/29 03:49:30;;;;;;;11.40;10.05;;;21.40;78.80;;;;;;4974854;28;20393;-64
2021/09/29 03:51:56;;;;;;;12.45;9.68;;;21.30;79.10;;;;;;4974428;28;20074;-64
2021/09/29 03:54:21;;;;;;;11.02;8.98;;;21.30;79.40;;;;;;4974957;28;20038;-64
2021/09/29 03:56:47;;;;;;;8.80;8.00;;;21.40;79.00;;;;;;4974503;28;20026;-64
2021/09/29 03:59:12;;;;;;;9.10;7.28;;;21.30;78.50;;;;;;4975070;28;20444;-63
2021/09/29 04:01:38;;;;;;;8.38;7.10;;;21.30;77.70;;;;;;4974504;28;20026;-63
2021/09/29 04:04:04;;;;;;;8.20;6.45;;;21.30;77.80;;;;;;4974799;28;20062;-63
2021/09/29 04:06:29;;;;;;;8.38;6.50;;;21.30;77.40;;;;;;4974363;28;20054;-63
2021/09/29 04:08:55;;;;;;;9.65;6.80;;;21.30;77.50;;;;;;4974711;28;20019;-63
2021/09/29 04:11:21;;;;;;;7.03;6.30;;;21.30;77.20;;;;;;4975307;28;21966;-63
2021/09/29 04:13:47;;;;;;;7.18;6.47;;;21.30;76.90;;;;;;4974811;28;20543;-63
2021/09/29 04:16:13;;;;;;;8.13;7.15;;;21.40;76.60;;;;;;4974194;28;20480;-63
2021/09/29 04:18:38;;;;;;;6.20;5.57;;;21.40;74.90;;;;;;4974881;28;20054;-63
2021/09/29 04:21:04;;;;;;;8.07;5.85;;;21.30;75.80;;;;;;4973942;28;20050;-63
2021/09/29 04:23:31;;;;;;;7.45;6.18;;;21.30;76.00;;;;;;4974356;28;20042;-63
2021/09/29 04:25:58;;;;;;;7.78;6.80;;;21.20;76.10;;;;;;4974414;28;20385;-63
2021/09/29 04:28:24;;;;;;;6.55;5.95;;;21.20;76.20;;;;;;4973951;28;20031;-63
2021/09/29 04:30:50;;;;;;;8.70;5.85;;;21.10;76.00;;;;;;4974761;28;20027;-63
2021/09/29 04:33:15;;;;;;;7.90;6.15;;;21.10;76.10;;;;;;4973969;28;20368;-63
2021/09/29 04:35:41;;;;;;;6.00;5.40;;;21.00;76.40;;;;;;4974656;28;20030;-63
2021/09/29 04:38:07;;;;;;;6.72;5.38;;;21.00;80.60;;;;;;4973537;28;20042;-63
2021/09/29 04:40:32;;;;;;;9.38;5.72;;;20.90;65.10;;;;;;4974677;28;20027;-63
2021/09/29 04:42:58;;;;;;;5.80;5.20;;;20.80;64.10;;;;;;4973581;28;20109;-63
2021/09/29 04:45:24;;;;;;;7.25;5.72;;;20.90;64.30;;;;;;4972357;28;20034;-63
2021/09/29 04:47:49;;;;;;;7.60;5.40;;;20.90;64.50;;;;;;4972429;28;20046;-63
2021/09/29 04:50:15;;;;;;;7.00;5.80;;;20.80;65.40;;;;;;4956038;28;20070;-62
2021/09/29 04:52:40;;;;;;;6.13;5.50;;;20.70;65.10;;;;;;4952651;28;20027;-63
2021/09/29 04:55:06;;;;;;;6.30;5.28;;;20.70;65.20;;;;;;4954200;29;20110;-63
2021/09/29 04:57:33;;;;;;;7.80;5.13;;;20.70;66.70;;;;;;4954769;28;20509;-63
2021/09/29 05:00:00;;;;;;;7.00;5.65;;;20.80;68.20;;;;;;4953965;28;20061;-63
2021/09/29 05:02:25;;;;;;;7.68;4.88;;;20.70;72.80;;;;;;4954135;28;20102;-63
2021/09/29 05:04:51;;;;;;;6.72;5.20;;;20.70;67.80;;;;;;4954640;29;20417;-63
2021/09/29 05:07:18;;;;;;;7.72;5.60;;;20.60;65.50;;;;;;4953515;28;20019;-63
2021/09/29 05:09:45;;;;;;;6.28;5.15;;;20.50;64.30;;;;;;4939325;29;20486;-63
2021/09/29 05:12:39;;;;;;;5.93;5.25;;;20.60;65.50;;;;;;4946209;28;20023;-63
2021/09/29 05:15:05;;;;;;;7.78;5.00;;;20.60;66.10;;;;;;4954534;29;20050;-63
2021/09/29 05:17:31;;;;;;;8.77;5.55;;;20.60;69.40;;;;;;4953841;28;20038;-63
2021/09/29 05:19:56;;;;;;;5.82;5.25;;;20.60;72.10;;;;;;4937001;29;20027;-63
2021/09/29 05:22:22;;;;;;;6.80;5.63;;;20.60;81.40;;;;;;4954363;28;20031;-64
2021/09/29 05:24:47;;;;;;;6.00;5.38;;;20.70;92.10;;;;;;4954840;29;20040;-64
2021/09/29 05:27:13;;;;;;;6.13;5.47;;;20.70;72.80;;;;;;4954236;28;20024;-64
2021/09/29 05:29:43;;;;;;;8.38;6.32;;;20.60;71.20;;;;;;4954537;29;20031;-64
2021/09/29 05:32:09;;;;;;;6.57;5.57;;;20.50;70.60;;;;;;4953935;28;20039;-64
2021/09/29 05:34:35;;;;;;;7.90;6.07;;;20.50;71.20;;;;;;4933927;29;20038;-64
2021/09/29 05:37:04;;;;;;;8.82;6.35;;;20.60;70.50;;;;;;4937125;28;20038;-63
2021/09/29 05:39:29;;;;;;;7.53;5.57;;;20.70;70.60;;;;;;4954630;29;20024;-64
2021/09/29 05:41:55;;;;;;;6.57;5.60;;;20.60;69.30;;;;;;4953793;28;20042;-63
2021/09/29 05:44:21;;;;;;;6.65;5.60;;;20.50;69.50;;;;;;4953961;29;20083;-64
2021/09/29 05:46:47;;;;;;;7.55;5.03;;;20.60;69.00;;;;;;4944327;28;20512;-64
2021/09/29 05:49:12;;;;;;;5.93;5.10;;;20.60;68.80;;;;;;4961700;28;20058;-63
2021/09/29 05:51:38;;;;;;;4.95;4.45;;;20.60;68.60;;;;;;4971839;28;20026;-64
2021/09/29 05:54:04;;;;;;;6.93;5.13;;;20.60;68.20;;;;;;4973208;28;20046;-64
2021/09/29 05:56:29;;;;;;;5.60;4.53;;;20.50;68.00;;;;;;4972878;28;20536;-64
2021/09/29 05:58:55;;;;;;;9.25;5.40;;;20.50;67.70;;;;;;4956622;28;20042;-64
2021/09/29 06:01:20;;;;;;;4.85;4.45;;;20.50;66.90;;;;;;4954202;29;20385;-64
2021/09/29 06:03:46;;;;;;;5.15;4.65;;;20.40;69.70;;;;;;4970048;28;20445;-64
2021/09/29 06:06:12;;;;;;;8.45;5.07;;;20.50;68.30;;;;;;4972981;28;20060;-64
2021/09/29 06:08:37;;;;;;;5.70;4.35;;;20.50;68.60;;;;;;4972852;28;20110;-64
2021/09/29 06:11:03;;;;;;;9.18;4.95;;;20.50;68.30;;;;;;4973383;28;20388;-64
2021/09/29 06:13:28;;;;;;;5.50;5.00;;;20.50;67.30;;;;;;4973031;28;20067;-64
2021/09/29 06:15:54;;;;;;;4.97;4.35;;;20.50;66.60;;;;;;4972844;28;20064;-64
2021/09/29 06:18:20;;;;;;;5.55;4.93;;;20.50;66.00;;;;;;4974280;28;20054;-64
2021/09/29 06:20:50;;;;;;;7.82;4.68;;;20.40;66.10;;;;;;4976372;28;20041;-64
2021/09/29 06:23:18;;;;;;;7.60;4.40;;;20.40;65.20;;;;;;4978461;28;20042;-64
2021/09/29 06:25:44;;;;;;;8.90;5.28;;;29.10;73.20;;;;;;4976692;28;20468;-64
2021/09/29 06:28:10;;;;;;;6.25;4.43;;;20.50;64.60;;;;;;4945613;29;20047;-64
2021/09/29 06:30:36;;;;;;;5.40;4.82;;;26.40;69.20;;;;;;4970165;28;20073;-64
2021/09/29 06:33:02;;;;;;;7.35;4.80;;;26.10;69.40;;;;;;4976398;28;20030;-64
2021/09/29 06:35:29;;;;;;;8.05;4.88;;;20.50;64.30;;;;;;4974938;28;20414;-64
2021/09/29 06:38:00;;;;;;;5.82;4.78;;;20.60;64.00;;;;;;4969914;28;20027;-64
2021/09/29 06:40:26;;;;;;;7.82;5.70;;;25.60;68.40;;;;;;4968148;28;20104;-64
2021/09/29 06:42:51;;;;;;;7.55;5.05;;;25.30;68.50;;;;;;4973839;28;20497;-64
2021/09/29 06:45:17;;;;;;;6.30;5.43;;;25.60;69.00;;;;;;4976287;28;20066;-64
2021/09/29 06:47:45;;;;;;;6.72;5.05;;;20.60;64.20;;;;;;4975741;28;20073;-64
2021/09/29 06:50:12;;;;;;;5.30;4.80;;;25.90;68.40;;;;;;4960942;28;20461;-64
2021/09/29 06:52:38;;;;;;;8.13;5.45;;;20.60;64.20;;;;;;4937679;29;20028;-64
2021/09/29 06:55:06;;;;;;;10.15;5.57;;;26.00;68.60;;;;;;4956413;29;20035;-64
2021/09/29 06:57:32;;;;;;;7.55;5.13;;;25.70;68.90;;;;;;4957051;28;20027;-64
2021/09/29 06:59:58;;;;;;;7.88;5.68;;;25.60;68.60;;;;;;4956341;28;20094;-64
2021/09/29 07:02:23;;;;;;;7.22;5.13;;;25.60;66.80;;;;;;4956520;28;20122;-64
2021/09/29 07:04:49;;;;;;;8.45;5.78;;;24.70;65.50;;;;;;4955789;28;20051;-64
2021/09/29 07:07:14;;;;;;;7.78;6.00;;;24.90;66.20;;;;;;4956217;28;20023;-63
2021/09/29 07:09:40;;;;;;;7.63;6.20;;;25.30;66.90;;;;;;4959488;28;20469;-63
2021/09/29 07:12:07;;;;;;;10.10;6.50;;;25.30;66.60;;;;;;4949674;28;20109;-64
2021/09/29 07:14:32;;;;;;;9.07;6.53;;;25.20;66.70;;;;;;4972185;28;20515;-63
2021/09/29 07:17:00;;;;;;;13.18;6.47;;;24.80;65.80;;;;;;4958299;28;20046;-63
2021/09/29 07:19:26;;;;;;;10.20;6.57;;;24.70;63.30;;;;;;4971465;28;20078;-63
2021/09/29 07:21:51;;;;;;;10.77;7.38;;;24.90;65.50;;;;;;4967426;28;20035;-64
2021/09/29 07:24:17;;;;;;;12.93;7.65;;;24.80;64.40;;;;;;4971281;28;20118;-64
2021/09/29 07:26:42;;;;;;;14.75;6.72;;;24.90;64.20;;;;;;4957707;28;20061;-64
2021/09/29 07:29:10;;;;;;;12.30;6.35;;;24.60;64.60;;;;;;4971306;28;20039;-63
2021/09/29 07:31:36;;;;;;;10.40;5.85;;;24.50;64.70;;;;;;4974743;28;20027;-64
2021/09/29 07:34:02;;;;;;;9.32;6.28;;;24.70;64.80;;;;;;4942152;29;20493;-63
2021/09/29 07:36:28;;;;;;;8.40;7.13;;;25.10;65.20;;;;;;4964666;28;20096;-64
2021/09/29 07:38:54;;;;;;;8.80;6.35;;;25.30;65.70;;;;;;4968315;28;20465;-63
2021/09/29 07:41:19;;;;;;;8.63;6.88;;;25.40;64.50;;;;;;4938387;29;20094;-63
2021/09/29 07:43:45;;;;;;;9.82;6.60;;;25.50;65.70;;;;;;4955196;28;20039;-63
2021/09/29 07:46:11;;;;;;;9.60;6.47;;;26.10;63.90;;;;;;4955527;28;20490;-63
2021/09/29 07:48:36;;;;;;;11.48;6.03;;;26.30;66.00;;;;;;4964804;28;20043;-63
2021/09/29 07:51:02;;;;;;;9.88;5.90;;;26.60;66.50;;;;;;4973635;28;20026;-63
2021/09/29 07:53:28;;;;;;;8.38;6.70;;;26.90;66.70;;;;;;4954556;28;20118;-63
2021/09/29 07:55:55;;;;;;;9.32;6.93;;;27.20;66.90;;;;;;4974695;28;20472;-63
2021/09/29 07:58:27;;;;;;;8.50;6.32;;;21.10;61.90;;;;;;4973606;28;20034;-62
2021/09/29 08:00:52;;;;;;;8.93;5.95;;;21.10;62.20;;;;;;4974809;28;20396;-64
2021/09/29 08:03:18;;;;;;;8.10;5.80;;;21.10;61.60;;;;;;4974004;28;20030;-64
2021/09/29 08:05:44;;;;;;;12.02;5.93;;;21.10;59.80;;;;;;4974557;28;20097;-64
2021/09/29 08:08:09;;;;;;;8.38;5.45;;;21.10;59.80;;;;;;4974079;28;20035;-64
2021/09/29 08:10:35;;;;;;;8.13;5.90;;;21.10;61.10;;;;;;4956940;28;20113;-64
2021/09/29 08:13:02;;;;;;;7.57;6.10;;;21.20;61.50;;;;;;4974278;28;20122;-63
2021/09/29 08:15:28;;;;;;;8.35;5.90;;;21.10;61.70;;;;;;4973368;28;20113;-64
2021/09/29 08:17:55;;;;;;;9.60;5.88;;;21.20;61.80;;;;;;4973092;28;20518;-64
2021/09/29 08:20:22;;;;;;;9.73;6.10;;;21.20;61.30;;;;;;4959937;28;20054;-64
2021/09/29 08:23:13;;;;;;;9.10;5.97;;;25.10;65.10;;;;;;4956782;28;20062;-64
2021/09/29 08:28:29;;;;;;;9.65;6.93;;;25.10;64.90;;;;;;4973023;28;20130;-64
2021/09/29 08:33:52;;;;;;;12.50;7.35;;;21.30;61.40;;;;;;4974581;28;19916;-64
2021/09/29 08:38:59;;;;;;;9.85;5.43;;;25.20;63.90;;;;;;4974159;28;20030;-64
2021/09/29 08:44:16;;;;;;;10.52;6.13;;;25.30;64.00;;;;;;4972487;28;20043;-64
2021/09/29 08:57:12;;;;;;;8.57;6.03;;;21.70;60.70;;;;;;4973594;28;20030;-64
2021/09/29 09:16:47;;;;;;;9.55;5.82;;;21.90;58.90;;;;;;4973886;28;20046;-63
2021/09/29 09:19:14;;;;;;;8.95;5.55;;;21.90;56.40;;;;;;4932041;29;20055;-63
2021/09/29 09:21:54;;;;;;;9.40;5.13;;;22.10;57.30;;;;;;4962708;28;20030;-63
2021/09/29 09:24:32;;;;;;;7.35;4.93;;;22.10;58.00;;;;;;4974034;28;20178;-63
2021/09/29 09:27:10;;;;;;;7.82;4.35;;;22.10;58.10;;;;;;4973359;28;20046;-63
2021/09/29 09:29:48;;;;;;;6.65;4.88;;;22.10;56.30;;;;;;4973654;28;20035;-63
2021/09/29 09:32:16;;;;;;;8.10;5.40;;;22.20;56.40;;;;;;4970588;28;20384;-63
2021/09/29 09:34:42;;;;;;;12.63;6.47;;;22.20;57.80;;;;;;4973235;28;20033;-65
2021/09/29 09:37:09;;;;;;;7.65;5.47;;;22.20;57.40;;;;;;4972960;28;20466;-63
2021/09/29 09:39:36;;;;;;;6.15;5.15;;;22.30;56.80;;;;;;4973562;28;20030;-63
2021/09/29 09:42:01;;;;;;;12.32;5.35;;;22.40;56.20;;;;;;4955331;28;20034;-63
2021/09/29 09:44:27;;;;;;;10.13;5.50;;;22.40;55.80;;;;;;4973094;28;20043;-63
2021/09/29 09:47:08;;;;;;;7.40;5.95;;;22.50;54.70;;;;;;4955679;28;20026;-64
2021/09/29 09:50:06;;;;;;;9.02;6.10;;;22.50;53.20;;;;;;4972857;28;20038;-64
2021/09/29 09:52:49;;;;;;;6.75;5.57;;;22.50;52.60;;;;;;4902476;28;20058;-64
2021/09/29 09:55:17;;;;;;;9.02;5.28;;;22.60;54.40;;;;;;4958770;28;20429;-63
2021/09/29 09:57:44;;;;;;;8.50;5.18;;;22.70;54.00;;;;;;4975679;28;20086;-63
2021/09/29 10:00:13;;;;;;;9.00;5.65;;;22.70;53.10;;;;;;4977488;28;20034;-65
2021/09/29 10:02:47;;;;;;;7.80;6.07;;;22.80;52.80;;;;;;4976329;28;20433;-64
2021/09/29 10:05:14;;;;;;;8.68;6.50;;;22.90;52.10;;;;;;4976685;28;20050;-65
2021/09/29 10:07:41;;;;;;;10.77;6.28;;;22.80;53.30;;;;;;4975621;28;20061;-64
2021/09/29 10:10:17;;;;;;;11.30;6.47;;;22.80;52.90;;;;;;4976474;28;20023;-65
2021/09/29 10:13:12;;;;;;;7.10;5.97;;;22.90;52.30;;;;;;4974807;28;20019;-65
2021/09/29 10:24:03;;;;;;;9.90;6.95;;;23.00;51.50;;;;;;4975444;28;20420;-65
2021/09/29 10:26:29;;;;;;;11.18;5.97;;;23.00;52.10;;;;;;4976942;28;20069;-64
2021/09/29 10:29:09;;;;;;;8.70;6.32;;;23.10;50.20;;;;;;4976240;28;20035;-64
2021/09/29 10:32:02;;;;;;;10.02;6.65;;;23.20;49.20;;;;;;4977093;28;20053;-64
2021/09/29 10:34:35;;;;;;;7.05;5.82;;;23.30;51.20;;;;;;4976598;28;20090;-64
2021/09/29 11:28:48;;;;;;;8.68;6.60;;;24.40;43.80;;;;;;4974004;28;20094;-66
2021/09/29 11:31:24;;;;;;;9.45;6.78;;;24.40;45.20;;;;;;4974086;28;20018;-66
2021/09/29 11:34:09;;;;;;;7.25;6.57;;;24.50;45.10;;;;;;4974668;28;20038;-66
2021/09/29 12:10:05;;;;;;;6.40;5.90;;;26.30;51.40;;;;;;4975413;28;20568;-65
2021/09/29 12:12:35;;;;;;;9.77;5.95;;;;;;;;;;4956732;28;20031;-66
2021/09/29 12:15:03;;;;;;;6.60;5.78;;;;;;;;;;4974919;28;20031;-65
2021/09/29 12:17:32;;;;;;;31.42;23.13;;;26.50;59.80;;;;;;4970713;28;20365;-66
2021/09/29 12:20:00;;;;;;;11.05;9.20;;;27.10;50.00;;;;;;4974705;28;20496;-65
2021/09/29 12:22:30;;;;;;;9.07;6.93;;;;;;;;;;4973793;28;20026;-66
2021/09/29 12:25:07;;;;;;;9.48;5.90;;;33.60;38.30;;;;;;4961397;28;20039;-66
2021/09/29 12:31:21;;;;;;;7.63;6.25;;;37.30;22.90;;;;;;4974746;28;20039;-67
2021/09/29 12:33:17;;;;;;;6.68;5.78;;;37.40;19.40;;;;;;4965356;28;20030;-67
2021/09/29 12:35:51;;;;;;;7.68;6.55;;;37.10;19.00;;;;;;4974456;28;20116;-66
2021/09/29 12:38:18;;;;;;;8.13;7.20;;;37.40;17.20;;;;;;4973601;28;20372;-67
2021/09/29 12:40:45;;;;;;;8.57;7.47;;;38.10;17.20;;;;;;4974434;28;20093;-67
2021/09/29 12:43:17;;;;;;;8.70;6.90;;;38.60;16.40;;;;;;4971789;28;20049;-67
2021/09/29 12:45:47;;;;;;;8.10;6.90;;;39.60;15.00;;;;;;4972956;28;20401;-66
2021/09/29 12:48:13;;;;;;;8.45;6.75;;;40.20;38.20;;;;;;4971307;28;20033;-67
2021/09/29 12:50:50;;;;;;;8.05;6.93;;;41.10;13.70;;;;;;4973461;28;20050;-67
2021/09/29 12:53:23;;;;;;;6.75;6.25;;;41.40;12.60;;;;;;4973734;28;20029;-67
2021/09/29 12:55:59;;;;;;;6.75;6.18;;;42.50;11.40;;;;;;4974385;28;20035;-67
2021/09/29 12:58:27;;;;;;;8.63;6.55;;;41.40;11.50;;;;;;4954225;28;20023;-68
2021/09/29 13:00:54;;;;;;;7.72;6.93;;;41.30;10.30;;;;;;4971310;28;20031;-67
2021/09/29 13:03:19;;;;;;;7.68;6.03;;;41.90;11.10;;;;;;4971860;28;20119;-67
2021/09/29 13:05:47;;;;;;;6.85;6.15;;;42.40;10.50;;;;;;4974200;28;20039;-67
2021/09/29 13:08:12;;;;;;;7.20;6.60;;;42.10;9.20;;;;;;4955041;28;20035;-67
2021/09/29 13:10:38;;;;;;;7.18;6.03;;;42.70;9.90;;;;;;4974143;28;20038;-67
2021/09/29 13:13:04;;;;;;;6.75;6.15;;;42.10;8.90;;;;;;4971937;28;20469;-65
2021/09/29 13:15:30;;;;;;;6.05;5.55;;;43.10;9.40;;;;;;4974262;28;20385;-65
2021/09/29 13:17:57;;;;;;;7.15;6.13;;;42.50;8.50;;;;;;4970052;28;20022;-65
2021/09/29 13:20:29;;;;;;;6.70;6.15;;;38.60;9.90;;;;;;4971056;28;20106;-66
2021/09/29 13:23:02;;;;;;;7.90;6.55;;;36.80;11.70;;;;;;4972540;28;20026;-67
2021/09/29 13:39:04;;;;;;;7.70;7.00;;;29.90;20.90;;;;;;4979108;28;20085;-67
2021/09/29 13:41:30;;;;;;;7.40;6.70;;;29.00;21.30;;;;;;4980460;28;20110;-67
2021/09/29 13:43:55;;;;;;;7.80;7.05;;;28.60;22.40;;;;;;4978765;28;20113;-67
2021/09/29 13:46:21;;;;;;;7.63;6.85;;;28.30;21.90;;;;;;4979826;28;20027;-67
2021/09/29 13:48:48;;;;;;;7.63;6.88;;;28.20;22.60;;;;;;4978524;28;20093;-67
2021/09/29 13:51:13;;;;;;;7.18;6.47;;;28.30;22.50;;;;;;4963105;28;20113;-67
2021/09/29 13:53:39;;;;;;;7.43;6.68;;;28.20;22.80;;;;;;4979020;28;20102;-67
2021/09/29 13:56:08;;;;;;;7.43;6.63;;;28.00;22.60;;;;;;4980096;28;20090;-67
2021/09/29 14:29:08;;;;;;;7.05;6.43;;;27.90;24.10;;;;;;4978349;28;20105;-67
2021/09/29 14:31:40;;;;;;;7.22;6.63;;;28.30;22.90;;;;;;4979815;28;20049;-67
2021/09/29 14:34:06;;;;;;;7.65;6.85;;;29.30;22.50;;;;;;4978324;28;20046;-67
2021/09/29 14:36:31;;;;;;;8.63;6.28;;;31.00;20.30;;;;;;4962500;28;20058;-66
2021/09/29 14:38:57;;;;;;;8.90;6.55;;;32.60;18.40;;;;;;4978397;28;20030;-67
2021/09/29 14:41:23;;;;;;;7.78;7.00;;;33.00;17.30;;;;;;4976906;28;20027;-67
2021/09/29 14:43:49;;;;;;;7.28;6.55;;;33.80;17.20;;;;;;4958352;28;20042;-66
2021/09/29 14:46:14;;;;;;;7.57;6.85;;;33.50;16.70;;;;;;4975888;28;20496;-67
2021/09/29 14:48:40;;;;;;;6.20;5.68;;;34.30;16.70;;;;;;4972463;28;20540;-66
2021/09/29 14:51:09;;;;;;;7.75;6.88;;;34.30;16.60;;;;;;4957288;28;20113;-66
2021/09/29 14:53:36;;;;;;;7.97;7.20;;;33.30;17.10;;;;;;4973327;28;20054;-67
2021/09/29 14:56:04;;;;;;;6.55;5.93;;;31.60;18.30;;;;;;4976130;28;20030;-67
2021/09/29 14:58:31;;;;;;;7.22;6.63;;;32.00;16.90;;;;;;4975566;28;20030;-67
2021/09/29 15:00:56;;;;;;;7.97;5.80;;;32.00;18.70;;;;;;4958444;28;20389;-67
2021/09/29 15:03:23;;;;;;;7.18;6.57;;;31.40;19.30;;;;;;4975037;28;20024;-66
2021/09/29 15:05:49;;;;;;;8.88;7.78;;;30.20;20.50;;;;;;4976334;28;20126;-67
2021/09/29 15:08:15;;;;;;;8.05;7.00;;;29.50;21.30;;;;;;4975108;28;20022;-67
2021/09/29 15:10:41;;;;;;;9.15;6.60;;;28.80;22.00;;;;;;4974437;28;20080;-67
2021/09/29 15:13:10;;;;;;;7.00;6.38;;;28.50;23.30;;;;;;4975962;28;20106;-67
2021/09/29 15:15:44;;;;;;;8.18;6.85;;;28.40;23.40;;;;;;4958229;28;20408;-67
2021/09/29 15:18:14;;;;;;;7.50;6.22;;;28.30;24.10;;;;;;4973209;28;20029;-67
2021/09/29 15:21:05;;;;;;;7.63;7.03;;;27.90;24.50;;;;;;4975390;28;20085;-66
2021/09/29 15:26:43;;;;;;;8.50;6.93;;;27.30;25.40;;;;;;4953105;28;20042;-67
2021/09/29 15:31:50;;;;;;;8.77;7.80;;;26.80;26.10;;;;;;4976200;28;20439;-67
2021/09/29 15:48:41;;;;;;;;;;;26.50;26.40;;;;;;4974528;28;20045;-66
2021/09/29 15:51:11;;;;;;;7.65;6.95;;;26.30;27.20;;;;;;4955648;28;19958;-66
2021/09/29 16:01:23;;;;;;;7.30;6.60;;;26.10;27.40;;;;;;4956093;29;20038;-66
2021/09/29 16:04:01;;;;;;;8.15;7.30;;;26.00;27.60;;;;;;4955058;28;20078;-67
2021/09/29 16:14:55;;;;;;;;;;;25.80;28.70;;;;;;4975198;28;20054;-66
2021/09/29 16:17:37;;;;;;;9.48;7.82;;;25.60;28.40;;;;;;4975106;28;19906;-66
2021/09/29 16:36:13;;;;;;;11.10;9.48;;;25.40;39.60;;;;;;4955511;29;20396;-66
2021/09/29 16:38:41;;;;;;;13.57;9.57;;;25.30;40.40;;;;;;4953695;28;20034;-66